createdAt,value
2019-03-20T00:01:07.972Z,102357.58
2019-03-20T00:02:16.578Z,102353.95
2019-03-20T00:03:23.784Z,102357.36
2019-03-20T00:04:31.037Z,102354.05
2019-03-20T00:05:38.788Z,102351.77
2019-03-20T00:06:45.198Z,102353.86
2019-03-20T00:07:53.886Z,102353.86
2019-03-20T00:09:01.577Z,102354.58
2019-03-20T00:10:12.451Z,102352.66
2019-03-20T00:11:19.338Z,102350.05
2019-03-20T00:12:26.143Z,102349.93
2019-03-20T00:13:36.009Z,102357.28
2019-03-20T00:14:42.462Z,102351.16
2019-03-20T00:15:50.738Z,102360.88
2019-03-20T00:16:57.688Z,102353.67
2019-03-20T00:18:04.259Z,102357.08
2019-03-20T00:19:11.440Z,102355.98
2019-03-20T00:20:19.358Z,102353.14
2019-03-20T00:21:27.058Z,102344.54
2019-03-20T00:22:35.028Z,102349.64
2019-03-20T00:23:41.830Z,102354.27
2019-03-20T00:24:48.808Z,102355.97
2019-03-20T00:25:57.260Z,102359.05
2019-03-20T00:27:06.137Z,102353.36
2019-03-20T00:28:12.415Z,102356.36
2019-03-20T00:29:19.258Z,102358.06
2019-03-20T00:30:25.438Z,102361.18
2019-03-20T00:31:31.817Z,102362.37
2019-03-20T00:32:40.757Z,102354.12
2019-03-20T00:33:47.439Z,102362.38
2019-03-20T00:35:00.722Z,102369.19
2019-03-20T00:36:02.239Z,102370.30
2019-03-20T00:37:10.500Z,102362.75
2019-03-20T00:38:17.406Z,102363.47
2019-03-20T00:39:23.818Z,102365.05
2019-03-20T00:40:30.835Z,102365.77
2019-03-20T00:41:37.559Z,102370.58
2019-03-20T00:42:43.702Z,102366.44
2019-03-20T00:43:51.075Z,102372.25
2019-03-20T00:44:58.903Z,102367.62
2019-03-20T00:46:04.957Z,102373.16
2019-03-20T00:47:12.365Z,102366.84
2019-03-20T00:48:19.463Z,102376.63
2019-03-20T00:49:26.016Z,102377.73
2019-03-20T00:50:34.353Z,102371.73
2019-03-20T00:51:41.168Z,102372.25
2019-03-20T00:52:47.366Z,102370.95
2019-03-20T00:53:54.597Z,102373.16
2019-03-20T00:55:00.868Z,102374.66
2019-03-20T00:56:28.541Z,102363.13
2019-03-20T00:57:35.756Z,102371.17
2019-03-20T00:58:42.429Z,102364.03
2019-03-20T00:59:49.252Z,102364.66
2019-03-20T01:00:56.717Z,102371.06
2019-03-20T01:02:03.653Z,102366.44
2019-03-20T01:03:11.997Z,102365.53
2019-03-20T01:04:17.875Z,102377.06
2019-03-20T01:05:24.668Z,102375.64
2019-03-20T01:06:32.271Z,102369.44
2019-03-20T01:07:38.418Z,102369.76
2019-03-20T01:08:46.577Z,102372.25
2019-03-20T01:09:54.387Z,102377.06
2019-03-20T01:11:00.398Z,102374.85
2019-03-20T01:12:09.369Z,102371.54
2019-03-20T01:13:15.917Z,102371.66
2019-03-20T01:14:22.247Z,102379.47
2019-03-20T01:15:29.007Z,102372.25
2019-03-20T01:16:36.688Z,102373.55
2019-03-20T01:17:43.439Z,102377.27
2019-03-20T01:18:50.829Z,102371.14
2019-03-20T01:19:58.106Z,102372.45
2019-03-20T01:21:04.315Z,102373.16
2019-03-20T01:22:10.887Z,102373.04
2019-03-20T01:23:18.039Z,102371.94
2019-03-20T01:24:24.675Z,102374.66
2019-03-20T01:25:35.076Z,102370.83
2019-03-20T01:26:42.647Z,102374.06
2019-03-20T01:27:49.317Z,102370.83
2019-03-20T01:28:55.808Z,102376.04
2019-03-20T01:30:02.287Z,102379.55
2019-03-20T01:31:08.566Z,102375.45
2019-03-20T01:32:15.319Z,102377.89
2019-03-20T01:33:21.489Z,102382.39
2019-03-20T01:34:48.838Z,102377.38
2019-03-20T01:35:56.958Z,102379.59
2019-03-20T01:37:03.359Z,102381.48
2019-03-20T01:38:10.803Z,102388.40
2019-03-20T01:39:17.758Z,102383.38
2019-03-20T01:40:23.788Z,102384.38
2019-03-20T01:41:37.868Z,102388.75
2019-03-20T01:42:40.405Z,102387.84
2019-03-20T01:43:46.849Z,102385.36
2019-03-20T01:44:53.498Z,102387.45
2019-03-20T01:46:00.928Z,102389.27
2019-03-20T01:47:07.032Z,102382.24
2019-03-20T01:48:13.634Z,102388.67
2019-03-20T01:49:21.946Z,102381.84
2019-03-20T01:50:28.238Z,102386.46
2019-03-20T01:51:35.217Z,102388.05
2019-03-20T01:52:42.359Z,102388.55
2019-03-20T01:53:48.507Z,102387.64
2019-03-20T01:54:57.476Z,102379.39
2019-03-20T01:56:04.592Z,102388.11
2019-03-20T01:57:11.160Z,102393.20
2019-03-20T01:58:17.876Z,102389.09
2019-03-20T01:59:25.549Z,102391.78
2019-03-20T02:00:32.069Z,102386.25
2019-03-20T02:01:38.519Z,102394.06
2019-03-20T02:02:46.479Z,102384.95
2019-03-20T02:03:53.712Z,102390.27
2019-03-20T02:05:01.260Z,102391.85
2019-03-20T02:06:07.649Z,102384.34
2019-03-20T02:07:16.230Z,102385.66
2019-03-20T02:08:23.652Z,102387.81
2019-03-20T02:09:30.089Z,102390.42
2019-03-20T02:10:36.769Z,102392.23
2019-03-20T02:11:43.840Z,102387.81
2019-03-20T02:12:51.189Z,102392.94
2019-03-20T02:13:58.069Z,102395.81
2019-03-20T02:15:08.218Z,102392.61
2019-03-20T02:16:16.740Z,102391.47
2019-03-20T02:17:24.780Z,102395.95
2019-03-20T02:18:31.259Z,102399.66
2019-03-20T02:19:37.830Z,102404.66
2019-03-20T02:20:44.900Z,102401.14
2019-03-20T02:21:50.999Z,102399.53
2019-03-20T02:22:58.082Z,102397.25
2019-03-20T02:24:05.220Z,102405.38
2019-03-20T02:25:12.406Z,102393.02
2019-03-20T02:26:20.551Z,102397.23
2019-03-20T02:27:28.016Z,102391.91
2019-03-20T02:28:36.510Z,102396.64
2019-03-20T02:29:45.590Z,102392.80
2019-03-20T02:30:52.986Z,102388.95
2019-03-20T02:31:59.621Z,102401.06
2019-03-20T02:33:08.336Z,102391.95
2019-03-20T02:34:14.921Z,102395.08
2019-03-20T02:35:22.972Z,102399.25
2019-03-20T02:36:29.769Z,102397.03
2019-03-20T02:37:35.609Z,102393.44
2019-03-20T02:38:42.712Z,102391.23
2019-03-20T02:39:49.086Z,102390.33
2019-03-20T02:40:55.680Z,102395.34
2019-03-20T02:42:03.014Z,102391.35
2019-03-20T02:43:10.221Z,102398.25
2019-03-20T02:44:17.033Z,102395.41
2019-03-20T02:45:24.382Z,102392.80
2019-03-20T02:46:30.515Z,102405.16
2019-03-20T02:47:37.190Z,102408.94
2019-03-20T02:48:44.963Z,102404.91
2019-03-20T02:49:53.013Z,102405.22
2019-03-20T02:51:00.392Z,102407.03
2019-03-20T02:52:08.911Z,102413.53
2019-03-20T02:53:16.824Z,102414.33
2019-03-20T02:54:26.014Z,102416.02
2019-03-20T02:55:32.326Z,102417.63
2019-03-20T02:56:38.687Z,102413.20
2019-03-20T02:57:45.348Z,102415.80
2019-03-20T02:58:52.202Z,102417.34
2019-03-20T02:59:59.758Z,102413.50
2019-03-20T03:01:06.147Z,102412.77
2019-03-20T03:02:13.472Z,102415.55
2019-03-20T03:03:20.995Z,102419.73
2019-03-20T03:04:28.584Z,102414.44
2019-03-20T03:05:34.766Z,102417.03
2019-03-20T03:06:42.673Z,102414.64
2019-03-20T03:07:49.383Z,102420.58
2019-03-20T03:08:55.795Z,102419.88
2019-03-20T03:10:22.893Z,102414.20
2019-03-20T03:11:29.053Z,102422.22
2019-03-20T03:12:34.905Z,102422.22
2019-03-20T03:13:42.875Z,102415.20
2019-03-20T03:14:49.632Z,102417.59
2019-03-20T03:15:57.673Z,102414.98
2019-03-20T03:17:05.077Z,102418.89
2019-03-20T03:18:11.945Z,102418.77
2019-03-20T03:19:18.907Z,102424.88
2019-03-20T03:20:27.880Z,102418.64
2019-03-20T03:21:34.635Z,102434.16
2019-03-20T03:22:42.879Z,102419.16
2019-03-20T03:23:50.517Z,102425.39
2019-03-20T03:24:56.520Z,102425.09
2019-03-20T03:26:04.211Z,102421.19
2019-03-20T03:27:11.628Z,102430.53
2019-03-20T03:28:18.294Z,102430.41
2019-03-20T03:29:25.296Z,102424.18
2019-03-20T03:30:31.539Z,102435.67
2019-03-20T03:31:38.119Z,102430.25
2019-03-20T03:32:46.342Z,102433.03
2019-03-20T03:33:52.735Z,102435.78
2019-03-20T03:35:00.939Z,102437.77
2019-03-20T03:36:20.510Z,102436.26
2019-03-20T03:37:17.728Z,102435.61
2019-03-20T03:38:24.768Z,102434.83
2019-03-20T03:39:32.251Z,102434.56
2019-03-20T03:40:39.159Z,102438.38
2019-03-20T03:41:46.063Z,102436.42
2019-03-20T03:42:54.940Z,102435.34
2019-03-20T03:44:01.101Z,102434.94
2019-03-20T03:45:11.571Z,102445.86
2019-03-20T03:46:18.809Z,102444.66
2019-03-20T03:47:25.862Z,102455.18
2019-03-20T03:48:32.738Z,102454.27
2019-03-20T03:49:39.661Z,102455.48
2019-03-20T03:50:48.373Z,102455.30
2019-03-20T03:51:55.968Z,102453.88
2019-03-20T03:53:04.695Z,102454.52
2019-03-20T03:54:11.818Z,102460.20
2019-03-20T03:55:18.532Z,102462.42
2019-03-20T03:56:25.841Z,102461.23
2019-03-20T03:57:33.634Z,102464.75
2019-03-20T03:58:40.092Z,102454.44
2019-03-20T03:59:46.187Z,102460.16
2019-03-20T04:00:52.130Z,102453.44
2019-03-20T04:01:58.843Z,102463.84
2019-03-20T04:03:05.120Z,102459.94
2019-03-20T04:04:11.832Z,102458.64
2019-03-20T04:05:19.568Z,102461.33
2019-03-20T04:06:35.423Z,102467.36
2019-03-20T04:07:34.202Z,102463.06
2019-03-20T04:08:42.592Z,102466.05
2019-03-20T04:09:49.500Z,102463.55
2019-03-20T04:10:56.868Z,102468.87
2019-03-20T04:12:03.189Z,102467.45
2019-03-20T04:13:09.991Z,102470.44
2019-03-20T04:14:17.791Z,102473.55
2019-03-20T04:15:24.237Z,102476.94
2019-03-20T04:16:32.457Z,102474.64
2019-03-20T04:17:39.583Z,102478.94
2019-03-20T04:18:46.197Z,102481.72
2019-03-20T04:19:52.780Z,102481.98
2019-03-20T04:20:59.209Z,102476.78
2019-03-20T04:22:06.042Z,102479.68
2019-03-20T04:23:12.803Z,102480.25
2019-03-20T04:24:19.089Z,102481.03
2019-03-20T04:25:26.086Z,102487.31
2019-03-20T04:26:32.289Z,102489.01
2019-03-20T04:27:38.770Z,102482.33
2019-03-20T04:28:45.548Z,102485.15
2019-03-20T04:29:54.046Z,102485.62
2019-03-20T04:31:00.396Z,102485.74
2019-03-20T04:32:07.387Z,102484.66
2019-03-20T04:33:13.537Z,102486.48
2019-03-20T04:34:19.910Z,102485.66
2019-03-20T04:35:26.348Z,102483.75
2019-03-20T04:36:34.366Z,102490.13
2019-03-20T04:37:41.728Z,102487.05
2019-03-20T04:38:48.836Z,102490.69
2019-03-20T04:39:56.179Z,102492.52
2019-03-20T04:41:04.911Z,102492.17
2019-03-20T04:42:11.870Z,102485.06
2019-03-20T04:43:18.485Z,102495.85
2019-03-20T04:44:47.940Z,102489.44
2019-03-20T04:45:55.407Z,102493.34
2019-03-20T04:47:04.059Z,102494.25
2019-03-20T04:48:10.967Z,102491.05
2019-03-20T04:49:19.448Z,102493.47
2019-03-20T04:50:26.674Z,102497.98
2019-03-20T04:51:33.788Z,102493.47
2019-03-20T04:52:40.059Z,102501.80
2019-03-20T04:53:46.809Z,102501.88
2019-03-20T04:54:55.257Z,102504.00
2019-03-20T04:56:01.698Z,102498.55
2019-03-20T04:57:09.538Z,102498.16
2019-03-20T04:58:17.188Z,102500.58
2019-03-20T04:59:24.558Z,102505.13
2019-03-20T05:00:31.915Z,102506.64
2019-03-20T05:01:37.858Z,102500.92
2019-03-20T05:02:44.478Z,102498.84
2019-03-20T05:03:51.708Z,102500.31
2019-03-20T05:04:58.235Z,102503.70
2019-03-20T05:06:04.617Z,102510.51
2019-03-20T05:07:11.348Z,102503.53
2019-03-20T05:08:18.938Z,102506.82
2019-03-20T05:09:25.798Z,102500.37
2019-03-20T05:10:32.119Z,102496.34
2019-03-20T05:11:38.869Z,102499.62
2019-03-20T05:12:46.110Z,102504.19
2019-03-20T05:13:52.798Z,102504.87
2019-03-20T05:14:59.228Z,102507.48
2019-03-20T05:16:06.149Z,102506.17
2019-03-20T05:17:12.392Z,102499.89
2019-03-20T05:18:19.279Z,102505.00
2019-03-20T05:19:26.118Z,102499.41
2019-03-20T05:20:32.309Z,102502.10
2019-03-20T05:21:39.670Z,102501.45
2019-03-20T05:22:47.567Z,102504.39
2019-03-20T05:23:54.607Z,102507.00
2019-03-20T05:25:02.265Z,102506.91
2019-03-20T05:26:08.938Z,102507.83
2019-03-20T05:27:15.997Z,102506.65
2019-03-20T05:28:23.758Z,102509.59
2019-03-20T05:29:30.137Z,102509.55
2019-03-20T05:30:37.027Z,102509.41
2019-03-20T05:31:44.587Z,102507.84
2019-03-20T05:32:50.858Z,102512.96
2019-03-20T05:33:58.057Z,102509.45
2019-03-20T05:35:05.325Z,102509.61
2019-03-20T05:36:12.518Z,102505.13
2019-03-20T05:37:20.118Z,102500.19
2019-03-20T05:38:26.053Z,102510.16
2019-03-20T05:39:33.168Z,102504.19
2019-03-20T05:40:40.335Z,102506.91
2019-03-20T05:41:48.798Z,102511.67
2019-03-20T05:42:56.906Z,102506.12
2019-03-20T05:44:03.390Z,102510.95
2019-03-20T05:45:19.517Z,102504.76
2019-03-20T05:46:26.568Z,102510.44
2019-03-20T05:47:34.725Z,102509.13
2019-03-20T05:48:41.744Z,102508.34
2019-03-20T05:49:50.108Z,102508.59
2019-03-20T05:50:57.114Z,102512.94
2019-03-20T05:52:05.165Z,102509.03
2019-03-20T05:53:12.167Z,102512.55
2019-03-20T05:54:18.829Z,102510.77
2019-03-20T05:55:26.670Z,102513.34
2019-03-20T05:56:34.566Z,102522.34
2019-03-20T05:57:40.797Z,102520.91
2019-03-20T05:58:47.525Z,102519.22
2019-03-20T05:59:55.350Z,102521.36
2019-03-20T06:01:01.799Z,102516.44
2019-03-20T06:02:08.772Z,102521.78
2019-03-20T06:03:17.559Z,102515.45
2019-03-20T06:04:25.018Z,102518.27
2019-03-20T06:05:33.778Z,102512.09
2019-03-20T06:06:40.479Z,102514.56
2019-03-20T06:07:49.020Z,102512.42
2019-03-20T06:08:56.287Z,102511.30
2019-03-20T06:10:03.318Z,102516.30
2019-03-20T06:11:10.319Z,102517.84
2019-03-20T06:12:19.091Z,102514.72
2019-03-20T06:13:27.308Z,102526.68
2019-03-20T06:14:35.525Z,102523.25
2019-03-20T06:15:44.417Z,102525.64
2019-03-20T06:16:50.966Z,102519.66
2019-03-20T06:17:59.030Z,102521.00
2019-03-20T06:19:06.421Z,102519.86
2019-03-20T06:20:14.535Z,102518.50
2019-03-20T06:21:21.000Z,102522.56
2019-03-20T06:22:29.080Z,102524.81
2019-03-20T06:23:36.309Z,102516.81
2019-03-20T06:24:44.049Z,102519.45
2019-03-20T06:25:51.435Z,102518.80
2019-03-20T06:27:03.453Z,102518.98
2019-03-20T06:28:11.519Z,102512.93
2019-03-20T06:29:20.002Z,102517.17
2019-03-20T06:30:27.539Z,102524.13
2019-03-20T06:31:34.249Z,102514.64
2019-03-20T06:32:40.679Z,102517.50
2019-03-20T06:33:47.401Z,102517.58
2019-03-20T06:34:56.290Z,102518.00
2019-03-20T06:36:03.899Z,102518.45
2019-03-20T06:37:12.999Z,102509.23
2019-03-20T06:38:19.395Z,102507.63
2019-03-20T06:39:26.760Z,102513.73
2019-03-20T06:40:33.570Z,102512.31
2019-03-20T06:41:39.861Z,102514.70
2019-03-20T06:42:46.526Z,102514.70
2019-03-20T06:43:53.429Z,102507.25
2019-03-20T06:45:01.779Z,102507.25
2019-03-20T06:46:08.360Z,102507.34
2019-03-20T06:47:17.959Z,102517.44
2019-03-20T06:48:26.149Z,102513.52
2019-03-20T06:49:33.531Z,102522.06
2019-03-20T06:50:40.201Z,102516.97
2019-03-20T06:51:46.897Z,102508.78
2019-03-20T06:52:54.581Z,102510.42
2019-03-20T06:54:03.054Z,102513.23
2019-03-20T06:55:11.077Z,102510.16
2019-03-20T06:56:24.683Z,102503.24
2019-03-20T06:57:31.851Z,102512.25
2019-03-20T06:58:40.179Z,102505.95
2019-03-20T07:00:14.129Z,102512.06
2019-03-20T07:02:43.802Z,102519.89
2019-03-20T07:04:09.810Z,102521.07
2019-03-20T07:05:38.577Z,102526.20
2019-03-20T07:06:55.410Z,102525.72
2019-03-20T07:08:02.773Z,102530.92
2019-03-20T07:09:30.611Z,102536.33
2019-03-20T07:11:12.583Z,102541.91
2019-03-20T07:12:21.643Z,102545.19
2019-03-20T07:13:29.492Z,102560.53
2019-03-20T07:14:35.960Z,102564.73
2019-03-20T07:15:44.361Z,102563.89
2019-03-20T07:16:51.868Z,102569.40
2019-03-20T07:18:00.080Z,102566.44
2019-03-20T07:19:07.805Z,102571.69
2019-03-20T07:20:19.268Z,102571.64
2019-03-20T07:21:32.561Z,102578.03
2019-03-20T07:22:43.927Z,102578.08
2019-03-20T07:23:54.122Z,102587.78
2019-03-20T07:25:10.061Z,102562.86
2019-03-20T07:26:16.520Z,102562.86
2019-03-20T07:27:24.542Z,102590.61
2019-03-20T07:28:31.402Z,102592.14
2019-03-20T07:29:37.882Z,102592.14
2019-03-20T07:30:46.092Z,102589.55
2019-03-20T07:31:53.441Z,102590.62
2019-03-20T07:33:01.106Z,102592.83
2019-03-20T07:34:07.778Z,102590.30
2019-03-20T07:35:15.127Z,102600.19
2019-03-20T07:36:21.383Z,102596.84
2019-03-20T07:37:28.042Z,102597.80
2019-03-20T07:38:34.967Z,102596.13
2019-03-20T07:39:42.131Z,102606.70
2019-03-20T07:40:49.051Z,102597.85
2019-03-20T07:41:55.899Z,102604.20
2019-03-20T07:43:08.658Z,102605.78
2019-03-20T07:44:12.831Z,102603.41
2019-03-20T07:45:19.419Z,102599.09
2019-03-20T07:46:27.288Z,102600.17
2019-03-20T07:47:34.459Z,102601.89
2019-03-20T07:48:40.798Z,102605.84
2019-03-20T07:49:48.031Z,102597.30
2019-03-20T07:50:55.120Z,102595.59
2019-03-20T07:52:01.335Z,102601.39
2019-03-20T07:53:09.401Z,102600.98
2019-03-20T07:54:16.672Z,102598.67
2019-03-20T07:55:24.903Z,102600.34
2019-03-20T07:56:31.440Z,102602.47
2019-03-20T07:57:38.568Z,102608.64
2019-03-20T07:58:50.091Z,102597.36
2019-03-20T07:59:58.681Z,102599.50
2019-03-20T08:01:05.532Z,102601.37
2019-03-20T08:02:12.488Z,102597.83
2019-03-20T08:03:20.957Z,102601.77
2019-03-20T08:04:27.769Z,102604.48
2019-03-20T08:05:34.858Z,102610.25
2019-03-20T08:06:42.638Z,102606.45
2019-03-20T08:07:49.788Z,102611.35
2019-03-20T08:08:56.437Z,102609.86
2019-03-20T08:10:03.175Z,102609.13
2019-03-20T08:11:10.488Z,102608.55
2019-03-20T08:12:19.007Z,102615.71
2019-03-20T08:13:26.243Z,102615.30
2019-03-20T08:14:32.734Z,102610.05
2019-03-20T08:15:39.890Z,102611.41
2019-03-20T08:16:51.005Z,102613.09
2019-03-20T08:17:58.678Z,102617.91
2019-03-20T08:19:08.048Z,102610.25
2019-03-20T08:20:22.528Z,102618.81
2019-03-20T08:21:28.827Z,102623.34
2019-03-20T08:22:35.748Z,102621.67
2019-03-20T08:23:43.030Z,102619.39
2019-03-20T08:24:49.742Z,102612.05
2019-03-20T08:25:56.531Z,102616.98
2019-03-20T08:27:03.727Z,102611.23
2019-03-20T08:28:10.548Z,102609.81
2019-03-20T08:29:17.060Z,102608.36
2019-03-20T08:30:25.691Z,102603.45
2019-03-20T08:31:33.239Z,102597.51
2019-03-20T08:32:39.216Z,102600.31
2019-03-20T08:33:45.397Z,102599.45
2019-03-20T08:34:52.993Z,102605.63
2019-03-20T08:35:59.211Z,102601.34
2019-03-20T08:37:05.488Z,102607.16
2019-03-20T08:38:18.212Z,102608.56
2019-03-20T08:39:22.674Z,102610.51
2019-03-20T08:40:29.631Z,102601.09
2019-03-20T08:41:36.462Z,102610.12
2019-03-20T08:42:43.819Z,102610.34
2019-03-20T08:43:50.284Z,102609.06
2019-03-20T08:44:57.640Z,102609.70
2019-03-20T08:46:05.163Z,102618.86
2019-03-20T08:47:12.119Z,102610.75
2019-03-20T08:48:18.746Z,102612.00
2019-03-20T08:49:25.318Z,102618.30
2019-03-20T08:50:31.661Z,102610.25
2019-03-20T08:51:38.711Z,102612.69
2019-03-20T08:52:45.532Z,102622.61
2019-03-20T08:53:52.607Z,102614.84
2019-03-20T08:55:02.291Z,102615.95
2019-03-20T08:56:08.918Z,102609.98
2019-03-20T08:57:15.825Z,102609.23
2019-03-20T08:58:22.538Z,102613.03
2019-03-20T08:59:28.948Z,102614.48
2019-03-20T09:00:35.459Z,102619.95
2019-03-20T09:01:43.058Z,102620.53
2019-03-20T09:02:51.288Z,102619.20
2019-03-20T09:03:58.173Z,102621.97
2019-03-20T09:05:07.932Z,102620.86
2019-03-20T09:06:14.690Z,102616.62
2019-03-20T09:07:22.500Z,102622.75
2019-03-20T09:08:29.911Z,102608.25
2019-03-20T09:09:37.080Z,102615.91
2019-03-20T09:10:43.681Z,102616.28
2019-03-20T09:11:50.048Z,102623.94
2019-03-20T09:12:56.665Z,102615.70
2019-03-20T09:14:02.867Z,102611.91
2019-03-20T09:15:12.899Z,102612.16
2019-03-20T09:16:20.749Z,102611.13
2019-03-20T09:17:26.790Z,102606.14
2019-03-20T09:18:33.729Z,102608.37
2019-03-20T09:19:40.464Z,102605.36
2019-03-20T09:20:47.102Z,102605.85
2019-03-20T09:21:54.673Z,102610.84
2019-03-20T09:23:00.923Z,102610.95
2019-03-20T09:24:08.519Z,102609.72
2019-03-20T09:25:18.864Z,102611.77
2019-03-20T09:26:26.554Z,102607.56
2019-03-20T09:27:32.633Z,102603.64
2019-03-20T09:28:38.919Z,102601.08
2019-03-20T09:29:44.956Z,102596.75
2019-03-20T09:30:52.563Z,102596.75
2019-03-20T09:32:00.032Z,102595.22
2019-03-20T09:33:05.943Z,102589.30
2019-03-20T09:34:13.651Z,102585.84
2019-03-20T09:35:19.974Z,102588.71
2019-03-20T09:36:27.090Z,102591.05
2019-03-20T09:37:34.892Z,102595.50
2019-03-20T09:38:43.705Z,102592.03
2019-03-20T09:39:51.202Z,102596.06
2019-03-20T09:40:58.730Z,102589.24
2019-03-20T09:42:05.652Z,102591.28
2019-03-20T09:43:14.290Z,102584.91
2019-03-20T09:44:21.842Z,102584.68
2019-03-20T09:45:28.593Z,102586.15
2019-03-20T09:46:35.053Z,102586.15
2019-03-20T09:47:41.153Z,102590.86
2019-03-20T09:48:47.854Z,102601.20
2019-03-20T09:49:57.145Z,102595.50
2019-03-20T09:51:03.563Z,102594.78
2019-03-20T09:52:09.696Z,102599.64
2019-03-20T09:53:15.803Z,102597.91
2019-03-20T09:54:22.925Z,102600.73
2019-03-20T09:55:29.003Z,102596.39
2019-03-20T09:56:35.353Z,102595.33
2019-03-20T09:57:42.566Z,102590.39
2019-03-20T09:58:50.462Z,102593.83
2019-03-20T09:59:56.892Z,102587.23
2019-03-20T10:01:03.995Z,102582.84
2019-03-20T10:02:11.475Z,102584.77
2019-03-20T10:03:20.533Z,102580.42
2019-03-20T10:04:29.095Z,102585.85
2019-03-20T10:05:35.392Z,102579.98
2019-03-20T10:06:43.333Z,102577.57
2019-03-20T10:07:49.618Z,102573.53
2019-03-20T10:08:55.852Z,102572.33
2019-03-20T10:10:01.927Z,102579.34
2019-03-20T10:11:08.080Z,102575.52
2019-03-20T10:12:14.453Z,102579.52
2019-03-20T10:13:21.992Z,102571.36
2019-03-20T10:14:28.214Z,102582.25
2019-03-20T10:15:34.340Z,102584.86
2019-03-20T10:16:41.203Z,102585.20
2019-03-20T10:17:47.841Z,102585.45
2019-03-20T10:18:55.912Z,102585.56
2019-03-20T10:20:01.902Z,102573.63
2019-03-20T10:21:08.148Z,102569.60
2019-03-20T10:22:15.201Z,102572.77
2019-03-20T10:23:21.853Z,102574.58
2019-03-20T10:24:28.349Z,102574.34
2019-03-20T10:25:44.185Z,102576.53
2019-03-20T10:26:45.312Z,102574.23
2019-03-20T10:27:52.050Z,102574.83
2019-03-20T10:28:58.927Z,102577.43
2019-03-20T10:30:17.142Z,102580.70
2019-03-20T10:31:23.525Z,102577.70
2019-03-20T10:32:29.897Z,102576.07
2019-03-20T10:33:36.370Z,102576.73
2019-03-20T10:34:43.296Z,102579.78
2019-03-20T10:35:52.035Z,102585.84
2019-03-20T10:36:59.579Z,102580.73
2019-03-20T10:38:05.789Z,102584.23
2019-03-20T10:39:11.836Z,102579.65
2019-03-20T10:40:26.147Z,102570.20
2019-03-20T10:41:32.379Z,102572.35
2019-03-20T10:42:38.890Z,102570.27
2019-03-20T10:43:44.933Z,102569.63
2019-03-20T10:44:52.713Z,102571.95
2019-03-20T10:45:58.932Z,102578.00
2019-03-20T10:47:05.354Z,102575.78
2019-03-20T10:48:11.393Z,102574.46
2019-03-20T10:49:17.603Z,102580.23
2019-03-20T10:50:30.772Z,102581.63
2019-03-20T10:51:39.549Z,102576.78
2019-03-20T10:52:47.775Z,102582.08
2019-03-20T10:53:54.092Z,102578.98
2019-03-20T10:55:00.485Z,102569.66
2019-03-20T10:56:07.590Z,102570.98
2019-03-20T10:57:14.437Z,102578.56
2019-03-20T10:58:23.036Z,102577.85
2019-03-20T10:59:29.083Z,102584.59
2019-03-20T11:00:35.854Z,102574.95
2019-03-20T11:01:43.001Z,102577.92
2019-03-20T11:02:49.002Z,102582.89
2019-03-20T11:03:55.318Z,102587.92
2019-03-20T11:05:01.273Z,102577.27
2019-03-20T11:06:07.905Z,102576.53
2019-03-20T11:07:15.531Z,102579.47
2019-03-20T11:08:21.555Z,102566.17
2019-03-20T11:09:27.677Z,102558.50
2019-03-20T11:10:35.233Z,102562.05
2019-03-20T11:11:41.524Z,102560.81
2019-03-20T11:12:48.604Z,102563.02
2019-03-20T11:13:54.859Z,102562.11
2019-03-20T11:15:00.891Z,102557.33
2019-03-20T11:16:07.095Z,102561.69
2019-03-20T11:17:13.338Z,102559.47
2019-03-20T11:18:20.904Z,102561.69
2019-03-20T11:19:27.314Z,102553.30
2019-03-20T11:20:33.627Z,102551.62
2019-03-20T11:21:40.592Z,102553.04
2019-03-20T11:22:47.584Z,102549.70
2019-03-20T11:23:54.317Z,102547.38
2019-03-20T11:25:01.287Z,102542.72
2019-03-20T11:26:07.535Z,102547.28
2019-03-20T11:27:13.644Z,102549.00
2019-03-20T11:28:19.984Z,102547.26
2019-03-20T11:29:26.475Z,102549.36
2019-03-20T11:30:34.401Z,102546.36
2019-03-20T11:31:40.834Z,102546.36
2019-03-20T11:32:47.605Z,102546.51
2019-03-20T11:33:54.512Z,102542.69
2019-03-20T11:35:00.742Z,102542.63
2019-03-20T11:36:07.384Z,102541.78
2019-03-20T11:37:13.876Z,102543.26
2019-03-20T11:38:20.152Z,102545.52
2019-03-20T11:39:29.935Z,102534.23
2019-03-20T11:40:37.549Z,102537.44
2019-03-20T11:43:03.895Z,102532.98
2019-03-20T11:44:09.790Z,102540.45
2019-03-20T11:45:16.295Z,102530.62
2019-03-20T11:46:22.753Z,102533.39
2019-03-20T11:47:28.996Z,102528.53
2019-03-20T11:48:35.105Z,102521.08
2019-03-20T11:49:41.475Z,102527.36
2019-03-20T11:50:47.826Z,102518.57
2019-03-20T11:51:55.235Z,102514.87
2019-03-20T11:53:02.156Z,102515.92
2019-03-20T11:54:11.495Z,102521.36
2019-03-20T11:55:17.545Z,102524.58
2019-03-20T11:56:24.905Z,102524.22
2019-03-20T11:57:32.693Z,102514.97
2019-03-20T11:58:39.276Z,102520.81
2019-03-20T11:59:45.386Z,102511.14
2019-03-20T12:00:52.565Z,102508.06
2019-03-20T12:02:02.412Z,102512.04
2019-03-20T12:03:10.256Z,102513.34
2019-03-20T12:04:17.665Z,102516.83
2019-03-20T12:05:24.109Z,102514.20
2019-03-20T12:06:31.216Z,102508.47
2019-03-20T12:07:37.682Z,102508.05
2019-03-20T12:08:43.722Z,102505.41
2019-03-20T12:09:50.396Z,102503.61
2019-03-20T12:10:58.607Z,102506.82
2019-03-20T12:12:05.130Z,102512.72
2019-03-20T12:13:13.292Z,102508.09
2019-03-20T12:14:19.507Z,102513.56
2019-03-20T12:15:25.654Z,102500.42
2019-03-20T12:16:32.257Z,102502.53
2019-03-20T12:17:40.346Z,102510.89
2019-03-20T12:18:46.803Z,102502.52
2019-03-20T12:19:54.016Z,102507.84
2019-03-20T12:21:00.285Z,102498.14
2019-03-20T12:22:07.926Z,102508.26
2019-03-20T12:23:14.827Z,102508.26
2019-03-20T12:24:21.196Z,102500.84
2019-03-20T12:25:32.808Z,102500.84
2019-03-20T12:26:39.203Z,102500.45
2019-03-20T12:27:45.599Z,102500.50
2019-03-20T12:28:52.355Z,102493.82
2019-03-20T12:29:58.909Z,102492.50
2019-03-20T12:31:06.797Z,102488.84
2019-03-20T12:32:13.385Z,102489.48
2019-03-20T12:33:19.929Z,102486.47
2019-03-20T12:34:25.934Z,102484.66
2019-03-20T12:35:44.291Z,102487.30
2019-03-20T12:36:50.904Z,102482.91
2019-03-20T12:38:17.907Z,102488.71
2019-03-20T12:39:24.244Z,102486.56
2019-03-20T12:40:34.136Z,102486.56
2019-03-20T12:41:40.104Z,102486.20
2019-03-20T12:42:47.898Z,102484.45
2019-03-20T12:43:54.337Z,102476.84
2019-03-20T12:45:00.560Z,102476.84
2019-03-20T12:46:07.197Z,102473.37
2019-03-20T12:47:13.737Z,102478.38
2019-03-20T12:48:21.056Z,102481.93
2019-03-20T12:49:27.525Z,102480.25
2019-03-20T12:50:33.639Z,102469.52
2019-03-20T12:51:40.517Z,102469.52
2019-03-20T12:52:48.135Z,102476.99
2019-03-20T12:53:54.388Z,102473.57
2019-03-20T12:55:03.132Z,102475.91